Snow/Ice From: 16-12-2017 16:00 Until: 17-12-2017 16:00 warning for: Snow/Ice Level: Yellow info button

Although rather usual in this region, locally or potentially dangerous phenomena are expected. (such as local winds, summer thunderstorms, rising streams or high waves) Be aware and pay attention to the latest weather updates, especially if you carry out activities exposed to weather or close to a stream or shoreline. 


Meteo18 Weather Cam more information Meteo18 Weather Cam


Thunder radar more information blitzortung!


warning for Snow/Ice more information rain snow radar


Visit our other weather sites:

Template documentation
and downloads

And another site



Weather Underground History page Text

Daily Summary for November 10, 2017 Units:  Both    English   Metric
« Previous Day
Next Day »
Daily Weekly Monthly Yearly Custom
  High: Low: Average:
Temperature: 51.1 °F /  10.6 °C 40.6 °F /  4.8 °C 47.3 °F /  8.5 °C
Dew Point: 49.1 °F /  9.5 °C 39.6 °F /  4.2 °C 45.7 °F /  7.6 °C
Humidity: 97 % 85 % 94 %
Wind Speed: 13 mph /  20.9 km/h - 4.2 mph /  6.8 km/h
Wind Gust: 15 mph /  24.1 km/h - -
Wind:- - West
Pressure: 30.4 in /  1028.3 hPa 30.2 in /  1023.2 hPa -
Precipitation: 0.02 in /  0.5 mm    
Historical Graphs
 
 
Tabular Data for November 10, 2017
Time Temperature Dew Point Pressure Wind Wind Speed Wind Gust Humidity Rainfall Rate (Hourly)
00:02 41.4 °F /  5.2 °C 39.7 °F /  4.3 °C 30.4 in /  1028.0 hPa Calm   3 mph /  4.8 km/h 94 % 0 in /  0.0 mm
00:07 41.4 °F /  5.2 °C 39.7 °F /  4.3 °C 30.4 in /  1028.0 hPa Calm   1 mph /  1.6 km/h 94 % 0 in /  0.0 mm
00:17 41.5 °F /  5.3 °C 39.9 °F /  4.4 °C 30.4 in /  1028.0 hPa Calm   1 mph /  1.6 km/h 94 % 0 in /  0.0 mm
00:22 41.4 °F /  5.2 °C 39.7 °F /  4.3 °C 30.4 in /  1028.3 hPa Calm   1 mph /  1.6 km/h 94 % 0 in /  0.0 mm
00:32 41.7 °F /  5.4 °C 40.5 °F /  4.7 °C 30.4 in /  1028.3 hPa Calm   3 mph /  4.8 km/h 95 % 0 in /  0.0 mm
00:42 41.7 °F /  5.4 °C 40.5 °F /  4.7 °C 30.4 in /  1028.0 hPa Calm   3 mph /  4.8 km/h 95 % 0 in /  0.0 mm
00:47 41.7 °F /  5.4 °C 40.5 °F /  4.7 °C 30.4 in /  1028.3 hPa Calm   1 mph /  1.6 km/h 95 % 0 in /  0.0 mm
00:52 41.9 °F /  5.5 °C 40.6 °F /  4.8 °C 30.4 in /  1028.3 hPa WSW 2 mph /  3.2 km/h 2 mph /  3.2 km/h 95 % 0 in /  0.0 mm
00:57 42.1 °F /  5.6 °C 40.8 °F /  4.9 °C 30.4 in /  1028.0 hPa SSW 1 mph /  1.6 km/h 4 mph /  6.4 km/h 95 % 0 in /  0.0 mm
01:02 42.1 °F /  5.6 °C 40.8 °F /  4.9 °C 30.4 in /  1028.3 hPa SW 2 mph /  3.2 km/h 4 mph /  6.4 km/h 95 % 0 in /  0.0 mm
01:07 42.1 °F /  5.6 °C 40.8 °F /  4.9 °C 30.4 in /  1028.3 hPa WSW 1 mph /  1.6 km/h 5 mph /  8.0 km/h 95 % 0 in /  0.0 mm
01:12 42.1 °F /  5.6 °C 40.8 °F /  4.9 °C 30.4 in /  1028.3 hPa Calm   5 mph /  8.0 km/h 95 % 0 in /  0.0 mm
01:17 42.1 °F /  5.6 °C 40.8 °F /  4.9 °C 30.4 in /  1028.3 hPa SW 1 mph /  1.6 km/h 2 mph /  3.2 km/h 95 % 0 in /  0.0 mm
01:22 42.3 °F /  5.7 °C 41 °F /  5.0 °C 30.4 in /  1028.3 hPa SW 2 mph /  3.2 km/h 3 mph /  4.8 km/h 95 % 0 in /  0.0 mm
01:27 42.3 °F /  5.7 °C 41 °F /  5.0 °C 30.4 in /  1028.3 hPa SSW 1 mph /  1.6 km/h 3 mph /  4.8 km/h 95 % 0 in /  0.0 mm
01:32 42.3 °F /  5.7 °C 41 °F /  5.0 °C 30.4 in /  1028.3 hPa SSW 2 mph /  3.2 km/h 3 mph /  4.8 km/h 95 % 0 in /  0.0 mm
01:37 42.1 °F /  5.6 °C 40.8 °F /  4.9 °C 30.4 in /  1028.3 hPa SSW 2 mph /  3.2 km/h 4 mph /  6.4 km/h 95 % 0 in /  0.0 mm
01:42 42.1 °F /  5.6 °C 40.8 °F /  4.9 °C 30.4 in /  1028.0 hPa SW 3 mph /  4.8 km/h 4 mph /  6.4 km/h 95 % 0 in /  0.0 mm
01:47 42.1 °F /  5.6 °C 40.8 °F /  4.9 °C 30.4 in /  1028.0 hPa South 2 mph /  3.2 km/h 4 mph /  6.4 km/h 95 % 0 in /  0.0 mm
01:52 41.9 °F /  5.5 °C 40.6 °F /  4.8 °C 30.4 in /  1028.0 hPa South 2 mph /  3.2 km/h 4 mph /  6.4 km/h 95 % 0 in /  0.0 mm
01:57 41.9 °F /  5.5 °C 40.6 °F /  4.8 °C 30.4 in /  1028.0 hPa SSW 1 mph /  1.6 km/h 4 mph /  6.4 km/h 95 % 0 in /  0.0 mm
02:02 41.7 °F /  5.4 °C 40.5 °F /  4.7 °C 30.4 in /  1028.3 hPa Calm   4 mph /  6.4 km/h 95 % 0 in /  0.0 mm
02:07 41.7 °F /  5.4 °C 40.5 °F /  4.7 °C 30.4 in /  1028.0 hPa SSW 1 mph /  1.6 km/h 3 mph /  4.8 km/h 95 % 0 in /  0.0 mm
02:12 41.7 °F /  5.4 °C 40.5 °F /  4.7 °C 30.4 in /  1027.7 hPa SSE 1 mph /  1.6 km/h 2 mph /  3.2 km/h 95 % 0 in /  0.0 mm
02:17 41.7 °F /  5.4 °C 40.5 °F /  4.7 °C 30.4 in /  1027.7 hPa SSW 2 mph /  3.2 km/h 2 mph /  3.2 km/h 95 % 0 in /  0.0 mm
02:22 41.5 °F /  5.3 °C 40.3 °F /  4.6 °C 30.3 in /  1027.3 hPa SSW 5 mph /  8.0 km/h 5 mph /  8.0 km/h 95 % 0 in /  0.0 mm
02:27 41.5 °F /  5.3 °C 40.3 °F /  4.6 °C 30.3 in /  1027.0 hPa South 3 mph /  4.8 km/h 5 mph /  8.0 km/h 95 % 0 in /  0.0 mm
02:32 41.4 °F /  5.2 °C 40.1 °F /  4.5 °C 30.3 in /  1027.0 hPa SW 3 mph /  4.8 km/h 5 mph /  8.0 km/h 95 % 0 in /  0.0 mm
02:37 41.2 °F /  5.1 °C 40.1 °F /  4.5 °C 30.3 in /  1027.0 hPa SW 4 mph /  6.4 km/h 6 mph /  9.7 km/h 96 % 0 in /  0.0 mm
02:42 41.2 °F /  5.1 °C 40.1 °F /  4.5 °C 30.3 in /  1027.3 hPa Calm   6 mph /  9.7 km/h 96 % 0 in /  0.0 mm
02:47 41.4 °F /  5.2 °C 40.3 °F /  4.6 °C 30.3 in /  1027.3 hPa Calm   5 mph /  8.0 km/h 96 % 0 in /  0.0 mm
02:52 41.4 °F /  5.2 °C 40.3 °F /  4.6 °C 30.3 in /  1027.3 hPa Calm   4 mph /  6.4 km/h 96 % 0 in /  0.0 mm
02:57 41.4 °F /  5.2 °C 40.3 °F /  4.6 °C 30.3 in /  1027.3 hPa SSW 2 mph /  3.2 km/h 4 mph /  6.4 km/h 96 % 0 in /  0.0 mm
03:02 41.4 °F /  5.2 °C 40.3 °F /  4.6 °C 30.3 in /  1027.0 hPa SW 1 mph /  1.6 km/h 6 mph /  9.7 km/h 96 % 0 in /  0.0 mm
03:07 41.4 °F /  5.2 °C 40.3 °F /  4.6 °C 30.3 in /  1027.0 hPa South 4 mph /  6.4 km/h 6 mph /  9.7 km/h 96 % 0 in /  0.0 mm
03:12 40.6 °F /  4.8 °C 39.6 °F /  4.2 °C 30.3 in /  1027.0 hPa SSW 1 mph /  1.6 km/h 6 mph /  9.7 km/h 96 % 0 in /  0.0 mm
09:07 43.5 °F /  6.4 °C 42.8 °F /  6.0 °C 30.3 in /  1025.3 hPa SW 8 mph /  12.9 km/h 9 mph /  14.5 km/h 97 % 0 in /  0.0 mm
09:12 43.5 °F /  6.4 °C 42.8 °F /  6.0 °C 30.3 in /  1025.3 hPa SSW 6 mph /  9.7 km/h 13 mph /  20.9 km/h 97 % 0 in /  0.0 mm
09:17 43.7 °F /  6.5 °C 43 °F /  6.1 °C 30.3 in /  1025.3 hPa SW 8 mph /  12.9 km/h 13 mph /  20.9 km/h 97 % 0 in /  0.0 mm
09:27 44.1 °F /  6.7 °C 43 °F /  6.1 °C 30.3 in /  1025.3 hPa WSW 4 mph /  6.4 km/h 15 mph /  24.1 km/h 96 % 0 in /  0.0 mm
09:32 44.1 °F /  6.7 °C 43 °F /  6.1 °C 30.3 in /  1025.6 hPa WSW 9 mph /  14.5 km/h 15 mph /  24.1 km/h 96 % 0 in /  0.0 mm
09:42 44.2 °F /  6.8 °C 43.2 °F /  6.2 °C 30.3 in /  1025.6 hPa SW 11 mph /  17.7 km/h 14 mph /  22.5 km/h 96 % 0 in /  0.0 mm
09:47 44.2 °F /  6.8 °C 43.2 °F /  6.2 °C 30.3 in /  1025.6 hPa West 4 mph /  6.4 km/h 14 mph /  22.5 km/h 96 % 0 in /  0.0 mm
09:52 44.2 °F /  6.8 °C 43.2 °F /  6.2 °C 30.3 in /  1025.6 hPa Calm   14 mph /  22.5 km/h 96 % 0 in /  0.0 mm
09:57 44.4 °F /  6.9 °C 43.3 °F /  6.3 °C 30.3 in /  1025.6 hPa SW 8 mph /  12.9 km/h 13 mph /  20.9 km/h 96 % 0 in /  0.0 mm
10:02 44.4 °F /  6.9 °C 43.3 °F /  6.3 °C 30.3 in /  1025.6 hPa WSW 9 mph /  14.5 km/h 12 mph /  19.3 km/h 96 % 0 in /  0.0 mm
10:12 44.4 °F /  6.9 °C 43.3 °F /  6.3 °C 30.3 in /  1025.6 hPa WSW 3 mph /  4.8 km/h 12 mph /  19.3 km/h 96 % 0 in /  0.0 mm
10:17 44.6 °F /  7.0 °C 43.5 °F /  6.4 °C 30.3 in /  1025.3 hPa SW 4 mph /  6.4 km/h 12 mph /  19.3 km/h 96 % 0 in /  0.0 mm
10:27 45 °F /  7.2 °C 43.9 °F /  6.6 °C 30.3 in /  1025.3 hPa WSW 7 mph /  11.3 km/h 12 mph /  19.3 km/h 96 % 0 in /  0.0 mm
10:32 45 °F /  7.2 °C 43.9 °F /  6.6 °C 30.3 in /  1025.3 hPa WSW 4 mph /  6.4 km/h 13 mph /  20.9 km/h 96 % 0 in /  0.0 mm
10:42 45 °F /  7.2 °C 43.9 °F /  6.6 °C 30.3 in /  1025.3 hPa WSW 2 mph /  3.2 km/h 13 mph /  20.9 km/h 96 % 0 in /  0.0 mm
10:47 45.1 °F /  7.3 °C 44.1 °F /  6.7 °C 30.3 in /  1025.6 hPa SW 2 mph /  3.2 km/h 11 mph /  17.7 km/h 96 % 0 in /  0.0 mm
10:57 45.1 °F /  7.3 °C 44.4 °F /  6.9 °C 30.3 in /  1025.3 hPa SW 7 mph /  11.3 km/h 11 mph /  17.7 km/h 97 % 0 in /  0.0 mm
11:02 45.1 °F /  7.3 °C 44.4 °F /  6.9 °C 30.3 in /  1025.3 hPa SSW 7 mph /  11.3 km/h 11 mph /  17.7 km/h 97 % 0 in /  0.0 mm
11:12 45.3 °F /  7.4 °C 44.6 °F /  7.0 °C 30.3 in /  1025.6 hPa West 5 mph /  8.0 km/h 11 mph /  17.7 km/h 97 % 0 in /  0.0 mm
11:17 45.5 °F /  7.5 °C 44.8 °F /  7.1 °C 30.3 in /  1025.6 hPa WSW 7 mph /  11.3 km/h 12 mph /  19.3 km/h 97 % 0 in /  0.0 mm
11:22 45.5 °F /  7.5 °C 44.8 °F /  7.1 °C 30.3 in /  1025.3 hPa WSW 5 mph /  8.0 km/h 12 mph /  19.3 km/h 97 % 0 in /  0.0 mm
11:32 45.7 °F /  7.6 °C 45 °F /  7.2 °C 30.3 in /  1025.6 hPa SW 3 mph /  4.8 km/h 12 mph /  19.3 km/h 97 % 0 in /  0.0 mm
11:37 45.7 °F /  7.6 °C 45 °F /  7.2 °C 30.3 in /  1025.6 hPa SW 3 mph /  4.8 km/h 10 mph /  16.1 km/h 97 % 0 in /  0.0 mm
11:42 45.7 °F /  7.6 °C 45 °F /  7.2 °C 30.3 in /  1025.6 hPa WSW 7 mph /  11.3 km/h 10 mph /  16.1 km/h 97 % 0 in /  0.0 mm
11:47 45.7 °F /  7.6 °C 45 °F /  7.2 °C 30.3 in /  1025.6 hPa SW 3 mph /  4.8 km/h 10 mph /  16.1 km/h 97 % 0 in /  0.0 mm
11:52 45.9 °F /  7.7 °C 45.1 °F /  7.3 °C 30.3 in /  1025.6 hPa WSW 6 mph /  9.7 km/h 9 mph /  14.5 km/h 97 % 0 in /  0.0 mm
11:57 45.9 °F /  7.7 °C 45.1 °F /  7.3 °C 30.3 in /  1025.3 hPa SSW 3 mph /  4.8 km/h 8 mph /  12.9 km/h 97 % 0 in /  0.0 mm
12:02 45.9 °F /  7.7 °C 45.1 °F /  7.3 °C 30.3 in /  1025.3 hPa SW 5 mph /  8.0 km/h 9 mph /  14.5 km/h 97 % 0 in /  0.0 mm
12:07 45.9 °F /  7.7 °C 45.1 °F /  7.3 °C 30.3 in /  1025.3 hPa WSW 1 mph /  1.6 km/h 11 mph /  17.7 km/h 97 % 0 in /  0.0 mm
12:12 46 °F /  7.8 °C 45.3 °F /  7.4 °C 30.3 in /  1025.3 hPa WSW 2 mph /  3.2 km/h 11 mph /  17.7 km/h 97 % 0 in /  0.0 mm
12:17 46 °F /  7.8 °C 45.3 °F /  7.4 °C 30.3 in /  1025.3 hPa West 3 mph /  4.8 km/h 11 mph /  17.7 km/h 97 % 0 in /  0.0 mm
12:22 46.2 °F /  7.9 °C 45.5 °F /  7.5 °C 30.3 in /  1025.3 hPa West 2 mph /  3.2 km/h 11 mph /  17.7 km/h 97 % 0 in /  0.0 mm
12:27 46.2 °F /  7.9 °C 45.5 °F /  7.5 °C 30.3 in /  1024.9 hPa WSW 6 mph /  9.7 km/h 11 mph /  17.7 km/h 97 % 0 in /  0.0 mm
12:32 46.2 °F /  7.9 °C 45.5 °F /  7.5 °C 30.3 in /  1024.9 hPa WSW 4 mph /  6.4 km/h 9 mph /  14.5 km/h 97 % 0 in /  0.0 mm
12:42 46.6 °F /  8.1 °C 45.9 °F /  7.7 °C 30.3 in /  1024.9 hPa SW 4 mph /  6.4 km/h 9 mph /  14.5 km/h 97 % 0 in /  0.0 mm
12:47 46.6 °F /  8.1 °C 45.9 °F /  7.7 °C 30.3 in /  1024.6 hPa WSW 5 mph /  8.0 km/h 9 mph /  14.5 km/h 97 % 0 in /  0.0 mm
12:52 46.8 °F /  8.2 °C 46 °F /  7.8 °C 30.3 in /  1024.9 hPa WNW 3 mph /  4.8 km/h 9 mph /  14.5 km/h 97 % 0 in /  0.0 mm
12:57 46.9 °F /  8.3 °C 46.2 °F /  7.9 °C 30.3 in /  1024.9 hPa WNW 5 mph /  8.0 km/h 9 mph /  14.5 km/h 97 % 0 in /  0.0 mm
13:02 46.9 °F /  8.3 °C 46.2 °F /  7.9 °C 30.3 in /  1024.6 hPa West 3 mph /  4.8 km/h 9 mph /  14.5 km/h 97 % 0 in /  0.0 mm
13:07 46.9 °F /  8.3 °C 46.2 °F /  7.9 °C 30.3 in /  1024.6 hPa SSW 2 mph /  3.2 km/h 10 mph /  16.1 km/h 97 % 0 in /  0.0 mm
13:12 46.9 °F /  8.3 °C 46.2 °F /  7.9 °C 30.3 in /  1024.6 hPa WSW 2 mph /  3.2 km/h 10 mph /  16.1 km/h 97 % 0 in /  0.0 mm
13:17 46.9 °F /  8.3 °C 46.2 °F /  7.9 °C 30.3 in /  1024.6 hPa SW 3 mph /  4.8 km/h 11 mph /  17.7 km/h 97 % 0 in /  0.0 mm
13:22 47.1 °F /  8.4 °C 46.4 °F /  8.0 °C 30.3 in /  1024.3 hPa West 8 mph /  12.9 km/h 11 mph /  17.7 km/h 97 % 0 in /  0.0 mm
13:27 47.1 °F /  8.4 °C 46.4 °F /  8.0 °C 30.3 in /  1024.3 hPa WSW 5 mph /  8.0 km/h 11 mph /  17.7 km/h 97 % 0 in /  0.0 mm
13:32 47.1 °F /  8.4 °C 46.4 °F /  8.0 °C 30.3 in /  1024.3 hPa West 8 mph /  12.9 km/h 11 mph /  17.7 km/h 97 % 0 in /  0.0 mm
13:37 47.1 °F /  8.4 °C 46.4 °F /  8.0 °C 30.3 in /  1024.3 hPa SW 6 mph /  9.7 km/h 12 mph /  19.3 km/h 97 % 0 in /  0.0 mm
13:42 47.3 °F /  8.5 °C 46.6 °F /  8.1 °C 30.3 in /  1024.3 hPa SW 5 mph /  8.0 km/h 12 mph /  19.3 km/h 97 % 0 in /  0.0 mm
13:52 47.7 °F /  8.7 °C 46.9 °F /  8.3 °C 30.2 in /  1023.9 hPa WSW 11 mph /  17.7 km/h 12 mph /  19.3 km/h 97 % 0 in /  0.0 mm
13:57 47.7 °F /  8.7 °C 46.9 °F /  8.3 °C 30.2 in /  1023.9 hPa SW 6 mph /  9.7 km/h 11 mph /  17.7 km/h 97 % 0 in /  0.0 mm
14:02 47.8 °F /  8.8 °C 46.9 °F /  8.3 °C 30.2 in /  1023.9 hPa West 5 mph /  8.0 km/h 11 mph /  17.7 km/h 97 % 0 in /  0.0 mm
14:07 47.8 °F /  8.8 °C 46.9 °F /  8.3 °C 30.2 in /  1023.9 hPa SW 6 mph /  9.7 km/h 11 mph /  17.7 km/h 97 % 0 in /  0.0 mm
14:12 47.8 °F /  8.8 °C 46.9 °F /  8.3 °C 30.2 in /  1023.9 hPa WSW 5 mph /  8.0 km/h 11 mph /  17.7 km/h 97 % 0 in /  0.0 mm
14:17 48 °F /  8.9 °C 47.1 °F /  8.4 °C 30.2 in /  1023.9 hPa West 7 mph /  11.3 km/h 14 mph /  22.5 km/h 97 % 0 in /  0.0 mm
14:22 48.4 °F /  9.1 °C 47.5 °F /  8.6 °C 30.2 in /  1023.6 hPa West 2 mph /  3.2 km/h 14 mph /  22.5 km/h 97 % 0 in /  0.0 mm
14:27 48.4 °F /  9.1 °C 47.5 °F /  8.6 °C 30.2 in /  1023.6 hPa West 9 mph /  14.5 km/h 14 mph /  22.5 km/h 97 % 0 in /  0.0 mm
14:32 48.4 °F /  9.1 °C 47.3 °F /  8.5 °C 30.2 in /  1023.6 hPa West 13 mph /  20.9 km/h 13 mph /  20.9 km/h 96 % 0 in /  0.0 mm
14:37 48.6 °F /  9.2 °C 47.5 °F /  8.6 °C 30.2 in /  1023.6 hPa West 5 mph /  8.0 km/h 13 mph /  20.9 km/h 96 % 0 in /  0.0 mm
14:42 48.6 °F /  9.2 °C 47.5 °F /  8.6 °C 30.2 in /  1023.6 hPa West 9 mph /  14.5 km/h 15 mph /  24.1 km/h 96 % 0 in /  0.0 mm
14:47 48.6 °F /  9.2 °C 47.5 °F /  8.6 °C 30.2 in /  1023.6 hPa West 8 mph /  12.9 km/h 15 mph /  24.1 km/h 96 % 0 in /  0.0 mm
14:52 48.6 °F /  9.2 °C 47.5 °F /  8.6 °C 30.2 in /  1023.6 hPa West 6 mph /  9.7 km/h 15 mph /  24.1 km/h 96 % 0 in /  0.0 mm
14:57 48.7 °F /  9.3 °C 47.7 °F /  8.7 °C 30.2 in /  1023.2 hPa WNW 9 mph /  14.5 km/h 14 mph /  22.5 km/h 96 % 0 in /  0.0 mm
15:02 48.7 °F /  9.3 °C 47.7 °F /  8.7 °C 30.2 in /  1023.2 hPa West 11 mph /  17.7 km/h 14 mph /  22.5 km/h 96 % 0 in /  0.0 mm
15:07 48.7 °F /  9.3 °C 47.7 °F /  8.7 °C 30.2 in /  1023.2 hPa West 5 mph /  8.0 km/h 15 mph /  24.1 km/h 96 % 0 in /  0.0 mm
15:12 48.9 °F /  9.4 °C 47.8 °F /  8.8 °C 30.2 in /  1023.2 hPa WSW 7 mph /  11.3 km/h 15 mph /  24.1 km/h 96 % 0 in /  0.0 mm
15:17 48.9 °F /  9.4 °C 47.8 °F /  8.8 °C 30.2 in /  1023.2 hPa WSW 8 mph /  12.9 km/h 15 mph /  24.1 km/h 96 % 0 in /  0.0 mm
15:22 48.9 °F /  9.4 °C 47.5 °F /  8.6 °C 30.2 in /  1023.2 hPa WNW 9 mph /  14.5 km/h 14 mph /  22.5 km/h 95 % 0 in /  0.0 mm
15:27 49.1 °F /  9.5 °C 47.7 °F /  8.7 °C 30.2 in /  1023.6 hPa West 6 mph /  9.7 km/h 14 mph /  22.5 km/h 95 % 0 in /  0.0 mm
15:32 49.3 °F /  9.6 °C 47.8 °F /  8.8 °C 30.2 in /  1023.6 hPa WSW 8 mph /  12.9 km/h 14 mph /  22.5 km/h 95 % 0 in /  0.0 mm
15:37 49.3 °F /  9.6 °C 47.8 °F /  8.8 °C 30.2 in /  1023.6 hPa West 6 mph /  9.7 km/h 15 mph /  24.1 km/h 95 % 0 in /  0.0 mm
15:42 49.5 °F /  9.7 °C 48 °F /  8.9 °C 30.2 in /  1023.6 hPa West 6 mph /  9.7 km/h 15 mph /  24.1 km/h 95 % 0 in /  0.0 mm
15:47 49.5 °F /  9.7 °C 48 °F /  8.9 °C 30.2 in /  1023.6 hPa SW 6 mph /  9.7 km/h 15 mph /  24.1 km/h 95 % 0 in /  0.0 mm
15:52 49.5 °F /  9.7 °C 48 °F /  8.9 °C 30.2 in /  1023.6 hPa WNW 10 mph /  16.1 km/h 14 mph /  22.5 km/h 95 % 0 in /  0.0 mm
15:57 49.5 °F /  9.7 °C 48 °F /  8.9 °C 30.2 in /  1023.2 hPa West 11 mph /  17.7 km/h 14 mph /  22.5 km/h 95 % 0 in /  0.0 mm
16:02 49.5 °F /  9.7 °C 48 °F /  8.9 °C 30.2 in /  1023.2 hPa West 6 mph /  9.7 km/h 14 mph /  22.5 km/h 95 % 0 in /  0.0 mm
16:07 49.5 °F /  9.7 °C 48 °F /  8.9 °C 30.2 in /  1023.2 hPa SW 5 mph /  8.0 km/h 14 mph /  22.5 km/h 95 % 0 in /  0.0 mm
16:12 49.5 °F /  9.7 °C 48.4 °F /  9.1 °C 30.2 in /  1023.2 hPa West 6 mph /  9.7 km/h 14 mph /  22.5 km/h 96 % 0 in /  0.0 mm
16:17 49.5 °F /  9.7 °C 48.4 °F /  9.1 °C 30.2 in /  1023.2 hPa West 7 mph /  11.3 km/h 11 mph /  17.7 km/h 96 % 0 in /  0.0 mm
16:22 49.5 °F /  9.7 °C 48.4 °F /  9.1 °C 30.2 in /  1023.2 hPa West 8 mph /  12.9 km/h 12 mph /  19.3 km/h 96 % 0 in /  0.0 mm
16:27 49.5 °F /  9.7 °C 48.4 °F /  9.1 °C 30.2 in /  1023.2 hPa West 5 mph /  8.0 km/h 12 mph /  19.3 km/h 96 % 0 in /  0.0 mm
16:32 49.6 °F /  9.8 °C 48.6 °F /  9.2 °C 30.2 in /  1023.2 hPa WSW 5 mph /  8.0 km/h 12 mph /  19.3 km/h 96 % 0 in /  0.0 mm
16:37 49.6 °F /  9.8 °C 48.6 °F /  9.2 °C 30.2 in /  1023.2 hPa West 6 mph /  9.7 km/h 12 mph /  19.3 km/h 96 % 0 in /  0.0 mm
16:42 49.6 °F /  9.8 °C 48.6 °F /  9.2 °C 30.2 in /  1023.2 hPa WSW 7 mph /  11.3 km/h 12 mph /  19.3 km/h 96 % 0 in /  0.0 mm
16:52 49.8 °F /  9.9 °C 48.7 °F /  9.3 °C 30.2 in /  1023.2 hPa West 8 mph /  12.9 km/h 11 mph /  17.7 km/h 96 % 0 in /  0.0 mm
16:57 49.8 °F /  9.9 °C 48.7 °F /  9.3 °C 30.2 in /  1023.2 hPa West 7 mph /  11.3 km/h 10 mph /  16.1 km/h 96 % 0 in /  0.0 mm
17:07 49.8 °F /  9.9 °C 48.7 °F /  9.3 °C 30.2 in /  1023.2 hPa WSW 4 mph /  6.4 km/h 11 mph /  17.7 km/h 96 % 0 in /  0.0 mm
17:12 49.8 °F /  9.9 °C 48.7 °F /  9.3 °C 30.2 in /  1023.2 hPa WSW 3 mph /  4.8 km/h 11 mph /  17.7 km/h 96 % 0 in /  0.0 mm
17:17 49.8 °F /  9.9 °C 48.7 °F /  9.3 °C 30.2 in /  1023.2 hPa WSW 4 mph /  6.4 km/h 10 mph /  16.1 km/h 96 % 0 in /  0.0 mm
17:22 49.8 °F /  9.9 °C 48.7 °F /  9.3 °C 30.2 in /  1023.2 hPa WSW 4 mph /  6.4 km/h 9 mph /  14.5 km/h 96 % 0 in /  0.0 mm
17:32 50 °F /  10.0 °C 48.9 °F /  9.4 °C 30.2 in /  1023.2 hPa West 8 mph /  12.9 km/h 10 mph /  16.1 km/h 96 % 0 in /  0.0 mm
17:37 50 °F /  10.0 °C 48.9 °F /  9.4 °C 30.2 in /  1023.2 hPa West 3 mph /  4.8 km/h 11 mph /  17.7 km/h 96 % 0 in /  0.0 mm
17:42 50.2 °F /  10.1 °C 48.7 °F /  9.3 °C 30.2 in /  1023.2 hPa WNW 2 mph /  3.2 km/h 11 mph /  17.7 km/h 95 % 0 in /  0.0 mm
17:47 50.2 °F /  10.1 °C 48.7 °F /  9.3 °C 30.2 in /  1023.2 hPa West 4 mph /  6.4 km/h 11 mph /  17.7 km/h 95 % 0 in /  0.0 mm
17:52 50.2 °F /  10.1 °C 48.7 °F /  9.3 °C 30.2 in /  1023.6 hPa WSW 3 mph /  4.8 km/h 8 mph /  12.9 km/h 95 % 0 in /  0.0 mm
17:57 50.4 °F /  10.2 °C 48.9 °F /  9.4 °C 30.2 in /  1023.6 hPa West 3 mph /  4.8 km/h 7 mph /  11.3 km/h 95 % 0 in /  0.0 mm
18:02 50.4 °F /  10.2 °C 48.9 °F /  9.4 °C 30.2 in /  1023.6 hPa West 2 mph /  3.2 km/h 6 mph /  9.7 km/h 95 % 0 in /  0.0 mm
18:07 50.5 °F /  10.3 °C 49.1 °F /  9.5 °C 30.2 in /  1023.6 hPa WNW 3 mph /  4.8 km/h 6 mph /  9.7 km/h 95 % 0 in /  0.0 mm
18:12 50.5 °F /  10.3 °C 48.9 °F /  9.4 °C 30.2 in /  1023.6 hPa West 4 mph /  6.4 km/h 9 mph /  14.5 km/h 94 % 0 in /  0.0 mm
18:17 50.7 °F /  10.4 °C 49.1 °F /  9.5 °C 30.2 in /  1023.6 hPa WNW 4 mph /  6.4 km/h 10 mph /  16.1 km/h 94 % 0 in /  0.0 mm
18:22 50.7 °F /  10.4 °C 49.1 °F /  9.5 °C 30.2 in /  1023.6 hPa West 4 mph /  6.4 km/h 10 mph /  16.1 km/h 94 % 0 in /  0.0 mm
18:27 50.7 °F /  10.4 °C 48.7 °F /  9.3 °C 30.2 in /  1023.6 hPa WNW 8 mph /  12.9 km/h 10 mph /  16.1 km/h 93 % 0 in /  0.0 mm
18:32 50.9 °F /  10.5 °C 48.9 °F /  9.4 °C 30.2 in /  1023.6 hPa West 7 mph /  11.3 km/h 9 mph /  14.5 km/h 93 % 0 in /  0.0 mm
18:42 50.9 °F /  10.5 °C 48.9 °F /  9.4 °C 30.2 in /  1023.6 hPa West 7 mph /  11.3 km/h 9 mph /  14.5 km/h 93 % 0 in /  0.0 mm
18:47 50.9 °F /  10.5 °C 48.9 °F /  9.4 °C 30.2 in /  1023.9 hPa West 9 mph /  14.5 km/h 13 mph /  20.9 km/h 93 % 0 in /  0.0 mm
18:52 51.1 °F /  10.6 °C 49.1 °F /  9.5 °C 30.2 in /  1023.6 hPa West 6 mph /  9.7 km/h 13 mph /  20.9 km/h 93 % 0 in /  0.0 mm
18:57 51.1 °F /  10.6 °C 49.1 °F /  9.5 °C 30.2 in /  1023.9 hPa WSW 3 mph /  4.8 km/h 13 mph /  20.9 km/h 93 % 0 in /  0.0 mm
19:02 51.1 °F /  10.6 °C 49.1 °F /  9.5 °C 30.2 in /  1023.9 hPa WNW 5 mph /  8.0 km/h 13 mph /  20.9 km/h 93 % 0 in /  0.0 mm
19:07 51.1 °F /  10.6 °C 49.1 °F /  9.5 °C 30.2 in /  1023.9 hPa West 7 mph /  11.3 km/h 12 mph /  19.3 km/h 93 % 0 in /  0.0 mm
19:12 50.9 °F /  10.5 °C 48.9 °F /  9.4 °C 30.2 in /  1023.9 hPa WNW 4 mph /  6.4 km/h 12 mph /  19.3 km/h 93 % 0 in /  0.0 mm
19:17 50.7 °F /  10.4 °C 48.7 °F /  9.3 °C 30.3 in /  1024.3 hPa West 7 mph /  11.3 km/h 12 mph /  19.3 km/h 93 % 0 in /  0.0 mm
19:22 50.7 °F /  10.4 °C 49.1 °F /  9.5 °C 30.3 in /  1024.3 hPa WNW 4 mph /  6.4 km/h 11 mph /  17.7 km/h 94 % 0.01 in /  0.3 mm
19:27 50.5 °F /  10.3 °C 48.9 °F /  9.4 °C 30.3 in /  1024.3 hPa WNW 4 mph /  6.4 km/h 8 mph /  12.9 km/h 94 % 0.01 in /  0.3 mm
19:32 50.5 °F /  10.3 °C 48.9 °F /  9.4 °C 30.3 in /  1024.3 hPa WNW 4 mph /  6.4 km/h 10 mph /  16.1 km/h 94 % 0.02 in /  0.5 mm
19:37 50.5 °F /  10.3 °C 48.9 °F /  9.4 °C 30.3 in /  1024.3 hPa WNW 2 mph /  3.2 km/h 10 mph /  16.1 km/h 94 % 0.02 in /  0.5 mm
19:42 50.5 °F /  10.3 °C 48.9 °F /  9.4 °C 30.3 in /  1024.3 hPa WNW 4 mph /  6.4 km/h 10 mph /  16.1 km/h 94 % 0.02 in /  0.5 mm
19:47 50.7 °F /  10.4 °C 49.1 °F /  9.5 °C 30.3 in /  1024.3 hPa West 6 mph /  9.7 km/h 10 mph /  16.1 km/h 94 % 0.02 in /  0.5 mm
19:52 50.7 °F /  10.4 °C 49.1 °F /  9.5 °C 30.3 in /  1024.3 hPa WNW 4 mph /  6.4 km/h 10 mph /  16.1 km/h 94 % 0.02 in /  0.5 mm
19:57 50.9 °F /  10.5 °C 48.9 °F /  9.4 °C 30.3 in /  1024.3 hPa WNW 4 mph /  6.4 km/h 10 mph /  16.1 km/h 93 % 0.02 in /  0.5 mm
20:02 50.9 °F /  10.5 °C 48.9 °F /  9.4 °C 30.3 in /  1024.3 hPa WNW 6 mph /  9.7 km/h 10 mph /  16.1 km/h 93 % 0.02 in /  0.5 mm
20:07 50.9 °F /  10.5 °C 48.9 °F /  9.4 °C 30.3 in /  1024.3 hPa WNW 4 mph /  6.4 km/h 10 mph /  16.1 km/h 93 % 0.02 in /  0.5 mm
20:12 50.9 °F /  10.5 °C 48.9 °F /  9.4 °C 30.3 in /  1024.3 hPa West 2 mph /  3.2 km/h 9 mph /  14.5 km/h 93 % 0.02 in /  0.5 mm
20:17 50.9 °F /  10.5 °C 48.9 °F /  9.4 °C 30.3 in /  1024.3 hPa WNW 3 mph /  4.8 km/h 9 mph /  14.5 km/h 93 % 0.02 in /  0.5 mm
20:22 50.7 °F /  10.4 °C 48.6 °F /  9.2 °C 30.3 in /  1024.3 hPa WNW 3 mph /  4.8 km/h 9 mph /  14.5 km/h 92 % 0.01 in /  0.3 mm
20:32 50.7 °F /  10.4 °C 48.7 °F /  9.3 °C 30.3 in /  1024.6 hPa Calm   7 mph /  11.3 km/h 93 % 0 in /  0.0 mm
20:37 50.7 °F /  10.4 °C 48.7 °F /  9.3 °C 30.3 in /  1024.3 hPa WNW 3 mph /  4.8 km/h 7 mph /  11.3 km/h 93 % 0 in /  0.0 mm
20:42 50.7 °F /  10.4 °C 48.7 °F /  9.3 °C 30.3 in /  1024.3 hPa West 2 mph /  3.2 km/h 7 mph /  11.3 km/h 93 % 0 in /  0.0 mm
20:47 50.5 °F /  10.3 °C 48.6 °F /  9.2 °C 30.3 in /  1024.3 hPa WSW 1 mph /  1.6 km/h 7 mph /  11.3 km/h 93 % 0 in /  0.0 mm
20:52 50.5 °F /  10.3 °C 48.6 °F /  9.2 °C 30.3 in /  1024.3 hPa Calm   5 mph /  8.0 km/h 93 % 0 in /  0.0 mm
21:02 50.5 °F /  10.3 °C 48.6 °F /  9.2 °C 30.3 in /  1024.6 hPa WNW 2 mph /  3.2 km/h 4 mph /  6.4 km/h 93 % 0 in /  0.0 mm
21:12 50.5 °F /  10.3 °C 48.6 °F /  9.2 °C 30.3 in /  1024.6 hPa West 1 mph /  1.6 km/h 5 mph /  8.0 km/h 93 % 0 in /  0.0 mm
21:17 50.4 °F /  10.2 °C 48.4 °F /  9.1 °C 30.3 in /  1024.6 hPa West 1 mph /  1.6 km/h 5 mph /  8.0 km/h 93 % 0 in /  0.0 mm
21:22 50.4 °F /  10.2 °C 48.4 °F /  9.1 °C 30.3 in /  1024.6 hPa West 1 mph /  1.6 km/h 5 mph /  8.0 km/h 93 % 0 in /  0.0 mm
21:27 50.4 °F /  10.2 °C 48.4 °F /  9.1 °C 30.3 in /  1024.6 hPa WNW 3 mph /  4.8 km/h 6 mph /  9.7 km/h 93 % 0 in /  0.0 mm
21:32 50.5 °F /  10.3 °C 48.6 °F /  9.2 °C 30.3 in /  1024.6 hPa WNW 4 mph /  6.4 km/h 6 mph /  9.7 km/h 93 % 0 in /  0.0 mm
21:37 50.7 °F /  10.4 °C 48.7 °F /  9.3 °C 30.3 in /  1024.6 hPa West 6 mph /  9.7 km/h 7 mph /  11.3 km/h 93 % 0 in /  0.0 mm
21:42 50.7 °F /  10.4 °C 48.7 °F /  9.3 °C 30.3 in /  1024.6 hPa WNW 3 mph /  4.8 km/h 8 mph /  12.9 km/h 93 % 0 in /  0.0 mm
21:47 50.5 °F /  10.3 °C 48.6 °F /  9.2 °C 30.3 in /  1024.6 hPa NW 5 mph /  8.0 km/h 8 mph /  12.9 km/h 93 % 0 in /  0.0 mm
21:52 50.5 °F /  10.3 °C 48.6 °F /  9.2 °C 30.3 in /  1024.9 hPa WNW 2 mph /  3.2 km/h 8 mph /  12.9 km/h 93 % 0 in /  0.0 mm
21:57 50.5 °F /  10.3 °C 48.4 °F /  9.1 °C 30.3 in /  1024.9 hPa WNW 4 mph /  6.4 km/h 8 mph /  12.9 km/h 92 % 0 in /  0.0 mm
22:02 50.4 °F /  10.2 °C 47.5 °F /  8.6 °C 30.3 in /  1024.9 hPa NNW 4 mph /  6.4 km/h 10 mph /  16.1 km/h 90 % 0 in /  0.0 mm
22:07 50.4 °F /  10.2 °C 46.9 °F /  8.3 °C 30.3 in /  1024.9 hPa NW 3 mph /  4.8 km/h 12 mph /  19.3 km/h 88 % 0 in /  0.0 mm
22:12 50.2 °F /  10.1 °C 46.4 °F /  8.0 °C 30.3 in /  1024.6 hPa NW 5 mph /  8.0 km/h 12 mph /  19.3 km/h 87 % 0 in /  0.0 mm
22:17 50.2 °F /  10.1 °C 46.4 °F /  8.0 °C 30.3 in /  1024.6 hPa NW 4 mph /  6.4 km/h 12 mph /  19.3 km/h 87 % 0 in /  0.0 mm
22:22 50.2 °F /  10.1 °C 46.4 °F /  8.0 °C 30.3 in /  1024.6 hPa NW 1 mph /  1.6 km/h 12 mph /  19.3 km/h 87 % 0 in /  0.0 mm
22:27 50 °F /  10.0 °C 46.2 °F /  7.9 °C 30.3 in /  1024.6 hPa WNW 3 mph /  4.8 km/h 12 mph /  19.3 km/h 87 % 0 in /  0.0 mm
22:37 49.8 °F /  9.9 °C 45.9 °F /  7.7 °C 30.3 in /  1024.6 hPa NNW 3 mph /  4.8 km/h 10 mph /  16.1 km/h 86 % 0 in /  0.0 mm
22:42 49.6 °F /  9.8 °C 45.9 °F /  7.7 °C 30.3 in /  1024.6 hPa NW 3 mph /  4.8 km/h 10 mph /  16.1 km/h 87 % 0 in /  0.0 mm
22:47 49.5 °F /  9.7 °C 45.7 °F /  7.6 °C 30.3 in /  1024.6 hPa WNW 4 mph /  6.4 km/h 10 mph /  16.1 km/h 87 % 0 in /  0.0 mm
22:52 49.5 °F /  9.7 °C 46 °F /  7.8 °C 30.3 in /  1024.6 hPa WNW 4 mph /  6.4 km/h 10 mph /  16.1 km/h 88 % 0 in /  0.0 mm
22:57 49.3 °F /  9.6 °C 45.9 °F /  7.7 °C 30.3 in /  1024.6 hPa NW 2 mph /  3.2 km/h 8 mph /  12.9 km/h 88 % 0 in /  0.0 mm
23:02 49.1 °F /  9.5 °C 46 °F /  7.8 °C 30.3 in /  1024.6 hPa WNW 4 mph /  6.4 km/h 8 mph /  12.9 km/h 89 % 0 in /  0.0 mm
23:07 48.9 °F /  9.4 °C 45.9 °F /  7.7 °C 30.3 in /  1024.6 hPa NW 6 mph /  9.7 km/h 7 mph /  11.3 km/h 89 % 0 in /  0.0 mm
23:12 48.9 °F /  9.4 °C 45.9 °F /  7.7 °C 30.3 in /  1024.6 hPa NW 3 mph /  4.8 km/h 11 mph /  17.7 km/h 89 % 0 in /  0.0 mm
23:22 48.9 °F /  9.4 °C 45.5 °F /  7.5 °C 30.3 in /  1024.6 hPa West 1 mph /  1.6 km/h 11 mph /  17.7 km/h 88 % 0 in /  0.0 mm
23:27 48.7 °F /  9.3 °C 45.3 °F /  7.4 °C 30.3 in /  1024.6 hPa NW 4 mph /  6.4 km/h 8 mph /  12.9 km/h 88 % 0 in /  0.0 mm
23:32 48.7 °F /  9.3 °C 45.3 °F /  7.4 °C 30.3 in /  1024.6 hPa WNW 5 mph /  8.0 km/h 11 mph /  17.7 km/h 88 % 0 in /  0.0 mm
23:37 48.7 °F /  9.3 °C 45 °F /  7.2 °C 30.3 in /  1024.6 hPa NW 2 mph /  3.2 km/h 11 mph /  17.7 km/h 87 % 0 in /  0.0 mm
23:42 48.6 °F /  9.2 °C 44.8 °F /  7.1 °C 30.3 in /  1024.6 hPa WNW 2 mph /  3.2 km/h 11 mph /  17.7 km/h 87 % 0 in /  0.0 mm
23:47 48.6 °F /  9.2 °C 44.6 °F /  7.0 °C 30.3 in /  1024.6 hPa WNW 7 mph /  11.3 km/h 9 mph /  14.5 km/h 86 % 0 in /  0.0 mm
23:52 48.6 °F /  9.2 °C 44.2 °F /  6.8 °C 30.3 in /  1024.6 hPa WNW 5 mph /  8.0 km/h 9 mph /  14.5 km/h 85 % 0 in /  0.0 mm
23:57 48.6 °F /  9.2 °C 44.2 °F /  6.8 °C 30.3 in /  1024.6 hPa NW 4 mph /  6.4 km/h 9 mph /  14.5 km/h 85 % 0 in /  0.0 mm
Meteo18
Compliments of Weather Underground - 4 mb

Script developed by  Jim McMurry - jmcmurry@mwt.net Adapted for the template by  Wim van der Kuil - Leuven-Template.eu

You find our weather info also at:

European Weather Network

Weather Underground

Equipment we use:

Weather-station
Davis Vue

Weather-program
Meteohub

Weather-server
Raspberry PI 2 B+

Provider
1 and 1

Davis Vue

Meteohub

Raspberry PI 2 B+

1 and 1